Station info - map view · info · telemetry · weather · raw · status · beacons · messages · bulletins · browse · moving · my account
Callsign, ship name or locator: Clear       
It is possible to search using wildcards (*?) after a prefix. Example: OH*
APRS station KG7BMQ-9 - show graphs
Map loading...
Comment: 146.580MHz Semper Fi
Mic-E message: Special
Location: 46°21.64' N 119°19.86' W - locator DN06II06GN - show map - static map
4.2 miles North bearing 20° from West Richland, Benton County, Washington, United States [?]
5.6 miles Northwest bearing 337° from Richland, Benton County, Washington, United States
13.9 miles Northwest bearing 318° from Kennewick, Benton County, Washington, United States
58.3 miles East bearing 106° from Yakima, Yakima County, Washington, United States
Last position: 2020-10-19 15:38:56 CDT (1d 5h28m ago)
2020-10-19 13:38:56 PDT local time at West Richland, United States [?]
Altitude: 469 ft
Course: 17°
Speed: 0 MPH
Device: Yaesu: FTM-400DR (rig)
Last path: KG7BMQ-9>4V2QVT via WAHAT*,qAO,KF7FMI-10 (good)
Positions stored: 19400
Packet rate: 193 seconds between packets on average during 2893 seconds.
Other SSIDs: KG7BMQ KG7BMQ-7 KG7BMQ-8
Stations near current position of KG7BMQ-9 - show more
callsign distance last heard - CDT      callsign distance last heard - CDT
W7TCT-72.1 miles 179°2020-09-27 17:04:59 CW70505.3 miles 166°2020-10-20 21:05:05
W7RHE-95.4 miles 202°2020-10-20 19:28:52 W7JWC B5.6 miles 19°2020-10-20 21:03:01
W7JWC-B5.6 miles 19°2020-10-20 21:03:11 EW84945.9 miles 80°2020-10-20 21:05:18
DW95726.1 miles 269°2020-10-20 21:00:06 KB7TIU-76.2 miles 141°2020-10-19 19:38:32
K7ZMC6.5 miles 211°2020-10-20 21:00:06 KE7RGP-76.8 miles 180°2020-10-20 21:05:32
KE7RGP6.8 miles 180°2020-10-20 20:16:25 W7CME7.3 miles 133°2020-10-05 17:22:06
WA7DUH7.6 miles 184°2020-10-20 20:58:29 W2RY-98.1 miles 133°2020-09-28 20:01:58
CW70808.6 miles 133°2020-10-20 21:05:05 W7W/WE0618.7 miles 177°2020-09-29 22:12:19
146.620-8.8 miles 138°2020-10-20 21:00:59 W7FRT-59.0 miles 130°2020-10-02 10:40:51
KI7SI B9.1 miles 161°2020-10-20 21:02:29 KI7SI-B9.1 miles 161°2020-10-20 21:02:39
Stations which heard KG7BMQ-9 directly on radio –
callsign pkts first heard - CDT last heard longest (tx => rx) longest at - CDT
NEWPRT 19 2020-10-01 14:54:15 2020-10-01 17:09:43 CN74XP > CN74XS 9.0 miles 2° 2020-10-01 16:01:15
LARCH 3 2020-10-01 20:19:03 2020-10-01 20:27:11 CN85RN > CN85UR 15.6 miles 39° 2020-10-01 20:19:03
JUNIPR 7 2020-10-01 21:35:49 2020-10-01 22:04:08 CN95UR > CN95PR 22.6 miles 275° 2020-10-01 22:04:08
WA7ZVY-4 2 2020-10-01 17:07:12 2020-10-01 17:12:19 CN74XP > CN74XP 0.8 miles 300° 2020-10-01 17:12:19
MISION 26 2020-10-01 23:02:24 2020-10-19 15:18:52 DN05HT > CN97TG 112.7 miles 335° 2020-10-01 23:02:24
WA2WA 11 2020-10-01 22:27:53 2020-10-19 15:07:22 DN05CT > DN06XB 87.8 miles 78° 2020-10-01 22:27:53
BADGER 1 2020-10-10 15:52:18 2020-10-10 15:52:18 DN07LF > CN97WO 58.3 miles 295° 2020-10-10 15:52:18
IDIOTV 1 2020-10-01 18:43:11 2020-10-01 18:43:11 CN84LU > CN85HP 57.8 miles 340° 2020-10-01 18:43:11
ALAKES 8 2020-10-10 14:41:42 2020-10-19 15:14:50 DN06LR > DN04VX 129.4 miles 162° 2020-10-10 15:14:48
W7IG 1 2020-10-01 19:41:56 2020-10-01 19:41:56 CN85NE > CN85HC 26.2 miles 262° 2020-10-01 19:41:56
W7SRA 7 2020-10-01 15:02:16 2020-10-01 18:51:19 CN74XP > CN84KU 48.7 miles 72° 2020-10-01 15:02:16
AE7TO-1 6 2020-10-01 17:51:35 2020-10-01 18:07:19 CN84IN > CN84HO 6.6 miles 304° 2020-10-01 18:07:19
NB7O-1 1 2020-10-01 23:06:15 2020-10-01 23:06:15 DN05HU > DN05HU 1.9 miles 161° 2020-10-01 23:06:15
BALDPK 1 2020-10-01 19:54:10 2020-10-01 19:54:10 CN85OI > CN85LJ 14.1 miles 283° 2020-10-01 19:54:10
BEAVRT 1 2020-10-01 19:58:12 2020-10-01 19:58:12 CN85PK > CN85OK 4.4 miles 282° 2020-10-01 19:58:12
N7AWM 12 2020-10-01 21:03:32 2020-10-01 21:29:45 CN95FR > CN95JP 15.7 miles 103° 2020-10-01 21:03:32
SADDLE 1 2020-10-01 19:35:46 2020-10-01 19:35:46 CN85MC > CN85HN 38.8 miles 327° 2020-10-01 19:35:46
WITHAM 3 2020-10-01 18:05:18 2020-10-01 18:30:44 CN84LQ > CN84IN 13.6 miles 242° 2020-10-01 18:30:44
KK7DS-1 1 2020-10-01 20:06:24 2020-10-01 20:06:24 CN85PM > CN85RL 8.1 miles 116° 2020-10-01 20:06:24
KF7FMI-10 18 2020-10-01 22:24:14 2020-10-07 05:30:15 DN06GM > DN06GD 27.3 miles 177° 2020-10-07 05:30:15
MKSRDG 5 2020-10-01 18:26:38 2020-10-01 19:29:42 CN85MA > CN84PK 42.3 miles 160° 2020-10-01 19:25:13
PERPET 1 2020-10-01 14:46:12 2020-10-01 14:46:12 CN74XP > CN74XH 23.2 miles 183° 2020-10-01 14:46:12
NPLNS 2 2020-10-01 18:53:19 2020-10-01 19:52:09 CN85MA > CN85MO 41.1 miles 360° 2020-10-01 18:53:19
W7LT 3 2020-10-01 20:04:20 2020-10-01 20:15:01 CN85QM > CN85RK 6.9 miles 140° 2020-10-01 20:10:59
KD7PPK-4 4 2020-10-07 05:32:16 2020-10-18 05:49:52 DN06GM > DN06CE 29.0 miles 215° 2020-10-18 05:49:52
WAHAT 44 2020-10-01 23:42:10 2020-10-19 15:38:56 DN06JE > DN06FT 45.4 miles 339° 2020-10-02 00:21:11
K0INK-5 5 2020-10-01 18:54:30 2020-10-01 19:37:54 CN85LA > CN85MI 24.1 miles 1° 2020-10-01 19:28:59
BETHEL 2 2020-10-01 22:39:44 2020-10-01 23:14:17 DN05IX > CN96KR 98.8 miles 301° 2020-10-01 23:14:17
WA7FC-1 261 2020-10-01 23:08:15 2020-10-18 07:04:57 JE03AT > DN06LF 9591.6 miles 293° 2020-10-13 16:57:33
WA7RGO-10 16 2020-10-01 18:22:36 2020-10-01 20:08:25 CN84LN > CN85MI 54.6 miles 8° 2020-10-01 18:22:36
W7CLI 96 2020-10-01 23:28:18 2020-10-19 15:00:59 DN06IG > DN06KF 7.4 miles 111° 2020-10-19 15:00:59
W7JMK-9 2 2020-10-12 16:47:32 2020-10-18 06:34:23 DN06JF > DN06KG 6.7 miles 76° 2020-10-12 16:47:32
SPOUT 1 2020-10-01 23:10:16 2020-10-01 23:10:16 DN05IW > DN05XR 63.3 miles 101° 2020-10-01 23:10:16
ND7Y-1 1 2020-10-01 20:25:05 2020-10-01 20:25:05 CN85TN > CN85PP 17.0 miles 297° 2020-10-01 20:25:05

Only position packets which were originated by the station are shown here. The range statistics show some extra long hops, because some digipeaters do not correctly add themselves to the digipeater path. Please check the raw packets.
About this site
This page shows real-time information collected from the Automatic Position Reporting System Internet network (APRS-IS). APRS is used by amateur (ham) radio operators to transmit real-time position information, weather data, telemetry and messages over the radio. A vehicle equipped with a GPS receiver, a VHF transmitter or HF transceiver and a small computer device called a tracker transmits it's location, speed and course in a small data packet, which is then received by a nearby iGate receiving site which forwards the packet on the Internet. Systems connected to the Internet can send information on the APRS-IS without a radio transmitter, or collect and display information transmitted anywhere in the world.
User guide · FAQ · Blog · Discussion group · Linking to aprs.fi · AIS sites · Service status · Database statistics · Advertising on aprs.fi · Technical details · API · Change log · Planned changes · Credits and thanks · Terms Of Service · iPhone/iPad APRS